Flight Track Log - Related Links

Times and Time Zones

All times are in EDT time to prevent confusion due to time zone crossing. See the JBU56 flight status page for this flight to view local times or setup timezone preferences in your user account.

Time Position Orientation Groundspeed Altitude Reporting Facility
EDT Latitude Longitude Course Direction KTS MPH feet Rate Location/Type
Sun 09:02:14 AM 38.9500 -77.5000 67° East 165 190 1,500  Level Potomac TRACON
Sun 09:03:08 AM 39.0000 -77.5333 333° Northwest 216 249 2,800 2,250 Climbing Potomac TRACON
Sun 09:04:14 AM 39.0667 -77.5333 360° North 267 307 6,000 2,704 Climbing Potomac TRACON
Sun 09:05:00 AM 39.1719 -77.0743 74° East  Level Estimated
Sun 09:05:50 AM 39.1436 -77.4142 50° Northeast 295 339 10,100  Level Washington Center
Sun 09:06:00 AM 39.1621 -76.9543 96° East  Level FlightAware Approximate
Sun 09:06:51 AM 39.1450 -77.3044 89° East 295 339 10,000  Level Washington Center
Sun 09:07:00 AM 39.2187 -76.8583 67° East  Level Estimated
Sun 09:07:52 AM 39.1133 -77.1914 110° East 295 339 10,100  Level Washington Center
Sun 09:08:50 AM 39.0814 -77.0756 110° East 317 365 13,000 2,746 Climbing Washington Center
Sun 09:09:50 AM 39.0494 -76.9575 109° East 335 386 15,500 2,380 Climbing Washington Center
Sun 09:10:51 AM 39.0653 -76.8319 81° East 335 386 17,800 1,736 Climbing Washington Center
Sun 09:11:51 AM 39.0833 -76.7039 80° East 348 400 19,000 595 Climbing Washington Center
Sun 09:12:52 AM 39.1011 -76.5706 80° East 361 415 19,000  Level Washington Center
Sun 09:13:52 AM 39.1189 -76.4397 80° East 367 422 19,000 763 Level Washington Center
Sun 09:14:50 AM 39.1383 -76.3033 80° East 373 429 20,500 1,563 Climbing Washington Center
Sun 09:15:51 AM 39.1536 -76.1964 80° East 373 429 22,100 1,721 Climbing Washington Center
Sun 09:16:52 AM 39.1750 -76.0442 80° East 378 435 24,000 1,765 Climbing Washington Center
Sun 09:17:50 AM 39.1942 -75.9022 80° East 391 450 25,600 1,424 Climbing Washington Center
Sun 09:18:50 AM 39.2653 -75.7847 52° Northeast 391 450 26,800 1,358 Climbing Washington Center
Sun 09:21:00 AM 39.4494 -75.5539 44° Northeast 453 521 29,900 1,232 Climbing New York Center
Sun 09:22:00 AM 39.5333 -75.4411 46° Northeast 440 506 30,700 550 Climbing New York Center
Sun 09:23:00 AM 39.6211 -75.3256 45° Northeast 435 501 31,000 150 Climbing New York Center
Sun 09:24:00 AM 39.7136 -75.1994 46° Northeast 435 501 31,000  Level New York Center
Sun 09:25:00 AM 39.7975 -75.0750 49° Northeast 448 516 31,000  Level New York Center
Sun 09:26:00 AM 39.8808 -74.9558 48° Northeast 448 516 31,000  Level New York Center
Sun 09:27:00 AM 39.9664 -74.8336 48° Northeast 448 516 31,000  Level New York Center
Sun 09:28:00 AM 40.0492 -74.7272 45° Northeast 455 524 31,000  Level New York Center
Sun 09:29:00 AM 40.1386 -74.6100 45° Northeast 460 529 31,000  Level New York Center
Sun 09:30:00 AM 40.2756 -74.5661 14° North 442 509 31,000  Level New York Center
Sun 09:32:24 AM 40.4733 -74.3925 34° Northeast 466 536 31,000 -118 Level Boston Center
Sun 09:33:24 AM 40.5453 -74.2175 62° Northeast 459 528 30,600 -992 Descending Boston Center
Sun 09:34:25 AM 40.6164 -74.0453 61° Northeast 452 520 29,000 -1,403 Descending Boston Center
Sun 09:35:28 AM 40.6658 -73.9250 62° Northeast 443 510 27,700 -1,220 Descending Boston Center
Sun 09:36:28 AM 40.7222 -73.7872 62° Northeast 429 494 26,500 -1,230 Descending Boston Center
Sun 09:37:30 AM 40.7864 -73.6256 62° Northeast 417 480 25,200 -1,073 Descending Boston Center
Sun 09:38:31 AM 40.8283 -73.5214 62° Northeast 412 474 24,300 -639 Descending Boston Center
Sun 09:39:32 AM 40.9056 -73.3744 55° Northeast 408 470 23,900 -496 Descending Boston Center
Sun 09:40:32 AM 40.9714 -73.2786 48° Northeast 402 463 23,300 -435 Descending Boston Center
Sun 09:41:36 AM 41.0453 -73.1683 48° Northeast 401 461 23,000 -148 Descending Boston Center
Sun 09:42:34 AM 41.1319 -73.0353 49° Northeast 400 460 23,000  Level Boston Center
Sun 09:43:38 AM 41.1822 -72.9058 63° Northeast 398 458 23,000  Level Boston Center
Sun 09:44:38 AM 41.2306 -72.7744 64° Northeast 397 457 23,000  Level Boston Center
Sun 09:45:39 AM 41.2786 -72.6481 63° Northeast 395 455 23,000  Level Boston Center
Sun 09:46:39 AM 41.3283 -72.5158 63° Northeast 397 457 23,000  Level Boston Center
Sun 09:47:43 AM 41.3772 -72.3858 63° Northeast 394 453 23,000  Level Boston Center
Sun 09:48:44 AM 41.4261 -72.2542 64° Northeast 394 453 23,000 -393 Level Boston Center
Sun 09:49:45 AM 41.4742 -72.1228 64° Northeast 394 453 22,200 -1,721 Descending Boston Center
Sun 09:50:46 AM 41.5286 -71.9683 65° Northeast 386 444 19,500 -2,244 Descending Boston Center
Sun 09:51:48 AM 41.5733 -71.8503 63° Northeast 369 425 17,600 -2,066 Descending Boston Center
Sun 09:52:48 AM 41.6181 -71.7256 64° Northeast 347 399 15,300 -1,884 Descending Boston Center
Sun 09:53:49 AM 41.6497 -71.6378 64° Northeast 344 396 13,800 -1,805 Descending Boston Center
Sun 09:54:51 AM 41.7000 -71.4978 64° Northeast 320 368 11,600 -1,366 Descending Boston Center
Sun 09:55:52 AM 41.7361 -71.4011 63° Northeast 295 339 11,000 -295 Descending Boston Center
Sun 09:56:53 AM 41.7719 -71.3083 63° Northeast 283 326 11,000  Level Boston Center
Sun 09:57:54 AM 41.8053 -71.2233 62° Northeast 245 282 11,000 -246 Level Boston Center
Sun 09:58:55 AM 41.8361 -71.1436 63° Northeast 242 278 10,500 -774 Descending Boston Center
Sun 09:59:58 AM 41.8667 -71.0656 62° Northeast 238 274 9,400 -1,143 Descending Boston Center
Sun 10:00:40 AM 41.8833 -71.0000 71° East 233 268 8,500 -833 Descending KA90
Sun 10:01:46 AM 41.9500 -71.0000 360° North 250 288 7,900 -857 Descending KA90
Sun 10:02:46 AM 41.9500 -71.0833 270° West 242 278 6,700 -1,250 Descending KA90
Sun 10:03:46 AM 42.0000 -71.1500 315° West 232 267 5,400 -1,043 Descending KA90
Sun 10:04:41 AM 42.0500 -71.1500 360° North 209 241 4,700 -694 Descending KA90
Sun 10:05:47 AM 42.1000 -71.1333 14° North 175 201 4,000 -333 Descending KA90
Sun 10:06:47 AM 42.1500 -71.1000 26° Northeast 177 204 4,000 -250 Level KA90
Sun 10:07:47 AM 42.2000 -71.0833 14° North 176 203 3,500 -750 Descending KA90
Sun 10:08:47 AM 42.2333 -71.0667 20° North 173 199 2,500 -1,000 Descending KA90
Sun 10:09:47 AM 42.2833 -71.0500 14° North 164 189 1,500 -850 Descending KA90
Sun 10:10:47 AM 42.3167 -71.0167 36° Northeast 141 162 800 -700 Descending KA90

Login

Don't have an account? Register now (free) for customized features, flight alerts, and more!